Airport details for: LGLM (Greece)

Metar

LGLM 221820Z 04005KT CAVOK 24/20 Q1014

General details

ICAO: LGLM
IATA: LXS
Name (city): Ifaistos
Major:
Country: Greece
vACC: Hellenic vACC
Description:

Lemnos International Airport (IATA: LXS, ICAO: LGLM) is an airport on Lemnos Island, Greece.

Scenery links:
FS9 scenery:
FSX/P3D scenery:
XP scenery:
Elevation: 14 ft.
Transition altitude: 4000 ft.
MSA: 9800 ft.
Latitude: 39.917222
Longitude: 25.236389
LGLM Charts
LGLM Notams
LGLM Online stations

Runways

Number Course Length Elevation Lat Lon ILS ILS freq ILS FAC GP
04R 41° 9895ft / 3016 m 13ft 39.907197 25.224344 - - 3.0°
22L 221° 9895ft / 3016 m 13ft 39.927006 25.248472 - - 3.0°